AirNav   Everest Fuels
 
 377 users online  

50XA Las Palmas Medical Center Heliport
El Paso, Texas, USA

GOING TO EL PASO?


FAA INFORMATION EFFECTIVE 16 JULY 2020

Location

FAA Identifier: 50XA
Lat/Long: 31-46-14.7800N 106-29-54.3900W
31-46.246333N 106-29.906500W
31.7707722,-106.4984417
(estimated)
Elevation: 3897 ft. / 1188 m (estimated)
From city: 1 mile NW of EL PASO, TX
Time zone: UTC -6 (UTC -7 during Standard Time)
Zip code: 79901

Heliport Operations

Heliport use: Private use. Permission required prior to landing
Activation date: 01/2019
Control tower: no
ARTCC: ALBUQUERQUE CENTER
FSS: ALBUQUERQUE FLIGHT SERVICE STATION
Attendance: 
Segmented circle: no

Heliport Communications

WX ASOS at ELP (7 nm E): PHONE 915-774-9497
WX AWOS-3PT at DNA (12 nm NW): 124.175 (575-589-2643)

Nearby radio navigation aids

VOR radial/distance  VOR name  Freq  Var
CJSr325/8.9CIUDAD JUAREZ VOR/DME116.7011E
ELPr244/11.4EL PASO VORTAC115.2012E
EWMr215/15.8NEWMAN VORTAC112.4012E

 
NDB name  Hdg/Dist  Freq  Var  ID
VALTR232/10.724208EEL . .-..

Heliport Services

Runway Information

Helipad H1

Dimensions: 53 x 53 ft. / 16 x 16 m
Surface: mats, in fair condition
Latitude: 31-46.241333N
Longitude: 106-29.906500W
Elevation: 3897.0 ft.
Traffic pattern: leftleft
Markings: none, in fair condition

Heliport Ownership and Management from official FAA records

Ownership: Privately-owned
Owner: LAS PALMAS MEDICAL CENTER
1801 N OREGON ST
EL PASO, TX 79902
Phone 615-313-2905
Manager: LAS PALMAS MEDICAL CENTER
1801 N OREGON ST
EL PASO, TX 79902
Phone 615-313-2905

Instrument Procedures

There are no published instrument procedures at 50XA.

Some nearby airports with instrument procedures:

KELP - El Paso International Airport (7 nm E)
KBIF - Biggs Army Airfield (Fort Bliss) (8 nm NE)
KDNA - Dona Ana County International Jetport Airport (12 nm NW)
KLRU - Las Cruces International Airport (38 nm NW)
KHMN - Holloman Air Force Base (68 nm N)
 
Loc | Ops | Rwys | IFR | FBO | Links
Com | Nav | Svcs | Stats | Notes
Aerial photo
No photo
 
Airport distance calculator
Flying to Las Palmas Medical Center Heliport? Find the distance to fly.

From to 50XA

Sunrise and sunset
Times for 10-Aug-2020
 Local
(UTC-6)
 Zulu
(UTC)
Morning civil twilight06:0312:03
Sunrise06:2912:29
Sunset19:5301:53
Evening civil twilight20:1902:19

Current date and time
Zulu (UTC)  10-Aug-2020 08:09:47
Local (UTC-6)  10-Aug-2020 02:09:47
 
METAR
KELP 
6nm NE 
100751Z 00000KT 10SM FEW150 FEW250 29/12 A3004 RMK AO2 SLP084 T02890117
KBIF 
8nm NE 
100658Z AUTO 00000KT 9SM CLR 29/10 A3003 RMK AO2 SLP093 T02850095 403780221 $
MMCS 
10nm SE 
100247Z 22006KT 10SM FEW030 34/10 A3002 RMK SLP026 52005 960 8/500 CB NE
KDNA 
12nm NW 
100755Z AUTO 18006KT 10SM CLR 27/09 A3006 RMK AO2
TAF
KELP 
6nm NE 
100520Z 1006/1106 16007KT P6SM FEW120 SCT250 FM101500 28006KT P6SM FEW120
KBIF 
8nm NE 
100600Z 1006/1112 VRB06KT 9999 SCT110 QNH2993INS TEMPO 1019/1021 VCTS BKN100CB TX39/1022Z TN19/1012Z
MMCS 
10nm SE 
100512Z 1006/1106 22005KT P6SM SKC FM101800 26010KT P6SM SKC FM110400 23005KT P6SM SKC
NOTAMs
Click for the latest NOTAMs
NOTAMs are issued by the DoD/FAA and will open in a separate window not controlled by AirNav.

 

 
 

Would you like to see your business listed on this page?

 If your business provides an interesting product or service to pilots, flight crews, aircraft, or users of the Las Palmas Medical Center Heliport, you should consider listing it here.  To start the listing process, click on the button below
 
Add a business
 

Other Pages about Las Palmas Medical Center Heliport

Update a link
 
Copyright © AirNav, LLC. All rights reserved. Privacy Policy  Contact